CheckWX is a tool to help pilots better visualize weather data.  It is not intended as a substitute for an official pre-flight weather briefing.

00:05:01 UTC

1V6 METAR
Fremont County Airport
Canon City, Colorado, USA
Current

7 hours ago

K1V6 241650Z AUTO 00000KT 10SM SCT110 21/M02 A3001 RMK AO2
Observed
Apr-24 @ 16:50 UTC
Visibility
10 SM
Flight Rules
VFR
Cloud Levels
  • Scattered at 11,000' AGL
Temperature
21°C / 70°F
Dewpoint
-2°C / 28°F
Humidity
21%
Altimeter
30.01" Hg
Pressure
1016.22 hPa
Previous

8 hours ago

K1V6 241630Z AUTO 22006KT 10SM SCT095 20/M01 A3002 RMK AO2
Observed
Apr-24 @ 16:30 UTC
Wind
  • 220° at 6 KTS
Visibility
10 SM
Flight Rules
VFR
Cloud Levels
  • Scattered at 9,500' AGL
Temperature
20°C / 68°F
Dewpoint
-1°C / 30°F
Humidity
24%
Altimeter
30.02" Hg
Pressure
1016.62 hPa
Previous

8 hours ago

K1V6 241610Z AUTO 25009KT 10SM SCT095 20/00 A3002 RMK AO2
Observed
Apr-24 @ 16:10 UTC
Wind
  • 250° at 9 KTS
Visibility
10 SM
Flight Rules
VFR
Cloud Levels
  • Scattered at 9,500' AGL
Temperature
20°C / 68°F
Dewpoint
C / 32°F
Humidity
26%
Altimeter
30.02" Hg
Pressure
1016.62 hPa